Time;durP1;ratioP1;P1;durP2;ratioP2;P2;SDS_P1;SDS_P2;PMS_P1;PMS_P2;Temp;Humidity;BMP_temperature;BMP_pressure;BME280_temperature;BME280_humidity;BME280_pressure;Samples;Min_cycle;Max_cycle;Signal;HPM_P1;HPM_P2
2024/04/05 00:00:51;;;;;;;19.90;7.57;;;9.90;92.90;;;;;;4957176;28;20644;-88
2024/04/05 00:03:17;;;;;;;14.10;7.40;;;9.90;92.90;;;;;;4955550;28;20215;-88
2024/04/05 00:05:42;;;;;;;17.60;8.87;;;9.90;92.80;;;;;;4956904;28;20731;-89
2024/04/05 00:08:08;;;;;;;15.40;7.47;;;9.80;92.70;;;;;;4956934;29;20175;-89
2024/04/05 00:10:34;;;;;;;18.50;7.93;;;9.80;92.80;;;;;;4955891;29;20242;-89
2024/04/05 00:12:59;;;;;;;15.40;7.80;;;9.80;92.90;;;;;;4956770;28;20682;-89
2024/04/05 00:15:25;;;;;;;19.90;7.70;;;9.80;93.00;;;;;;4956634;29;20226;-89
2024/04/05 00:17:51;;;;;;;24.63;8.20;;;9.80;93.00;;;;;;4956789;29;20171;-89
2024/04/05 00:20:17;;;;;;;18.90;7.47;;;9.80;93.00;;;;;;4956429;28;20652;-89
2024/04/05 00:22:42;;;;;;;17.77;8.03;;;9.80;93.10;;;;;;4956731;28;20757;-89
2024/04/05 00:25:08;;;;;;;16.43;7.30;;;9.80;93.10;;;;;;4956983;29;20180;-89
2024/04/05 00:27:33;;;;;;;25.50;8.03;;;9.80;93.30;;;;;;4956981;29;20175;-89
2024/04/05 00:30:03;;;;;;;25.10;7.40;;;9.80;93.30;;;;;;4955911;29;20176;-89
2024/04/05 00:32:29;;;;;;;13.33;7.03;;;9.80;93.50;;;;;;4957261;28;20186;-90
2024/04/05 00:34:54;;;;;;;17.73;7.03;;;9.80;93.40;;;;;;4955936;29;20183;-89
2024/04/05 00:37:20;;;;;;;13.67;6.97;;;9.90;93.50;;;;;;4956651;29;20179;-87
2024/04/05 00:39:45;;;;;;;16.60;7.37;;;9.80;93.40;;;;;;4956768;29;20211;-89
2024/04/05 00:42:11;;;;;;;18.17;6.70;;;9.80;93.50;;;;;;4957347;29;20590;-89
2024/04/05 00:44:37;;;;;;;19.70;7.57;;;9.70;93.60;;;;;;4955425;28;20683;-90
2024/04/05 00:47:03;;;;;;;26.90;11.10;;;9.70;93.80;;;;;;4957850;29;20599;-89
2024/04/05 00:49:29;;;;;;;27.60;10.40;;;9.70;94.10;;;;;;4955938;29;20278;-88
2024/04/05 00:51:59;;;;;;;20.40;10.40;;;9.80;94.20;;;;;;4955711;29;20270;-89
2024/04/05 00:54:25;;;;;;;21.70;10.97;;;9.90;94.20;;;;;;4956907;28;20270;-87
2024/04/05 00:56:50;;;;;;;25.83;10.90;;;9.90;94.10;;;;;;4955672;29;20179;-88
2024/04/05 00:59:16;;;;;;;26.27;11.10;;;10.00;94.00;;;;;;4957282;29;20186;-89
2024/04/05 01:01:42;;;;;;;32.70;11.67;;;10.00;93.90;;;;;;4954958;29;20175;-89
2024/04/05 01:04:10;;;;;;;21.70;11.00;;;10.10;93.90;;;;;;4954919;28;20203;-88
2024/04/05 01:06:36;;;;;;;21.57;9.80;;;10.20;93.80;;;;;;4955451;29;20558;-88
2024/04/05 01:09:04;;;;;;;23.60;10.40;;;10.20;93.70;;;;;;4955382;29;20263;-89
2024/04/05 01:11:30;;;;;;;29.50;10.93;;;10.20;93.70;;;;;;4955872;29;20179;-89
2024/04/05 01:13:55;;;;;;;31.13;11.23;;;10.10;93.70;;;;;;4956619;28;20207;-89
2024/04/05 01:16:21;;;;;;;27.43;10.50;;;10.10;93.80;;;;;;4955329;29;20167;-88
2024/04/05 01:18:47;;;;;;;30.27;11.03;;;10.10;93.80;;;;;;4955134;29;20660;-89
2024/04/05 01:21:12;;;;;;;26.40;11.20;;;10.10;93.80;;;;;;4956897;28;20250;-89
2024/04/05 01:23:43;;;;;;;25.20;10.47;;;10.00;93.80;;;;;;4954676;28;20314;-88
2024/04/05 01:26:09;;;;;;;19.77;10.47;;;10.00;93.90;;;;;;4956776;28;20176;-89
2024/04/05 01:28:34;;;;;;;23.80;10.50;;;9.90;93.80;;;;;;4960273;28;20186;-88
2024/04/05 01:31:00;;;;;;;22.77;10.43;;;9.90;93.80;;;;;;4959104;29;20262;-89
2024/04/05 01:33:26;;;;;;;31.03;10.73;;;9.80;93.80;;;;;;4958944;28;20202;-88
2024/04/05 01:35:51;;;;;;;28.63;11.40;;;9.80;93.90;;;;;;4958756;29;20183;-88
2024/04/05 01:38:17;;;;;;;24.53;10.77;;;9.90;94.00;;;;;;4959068;29;20230;-89
2024/04/05 01:40:43;;;;;;;28.03;10.00;;;9.90;94.00;;;;;;4959061;29;20642;-89
2024/04/05 01:43:08;;;;;;;26.73;10.23;;;9.90;94.00;;;;;;4959092;28;20219;-88
2024/04/05 01:45:34;;;;;;;27.63;11.67;;;10.00;93.90;;;;;;4959230;29;20175;-88
2024/04/05 01:47:59;;;;;;;25.63;10.80;;;10.10;93.80;;;;;;4958776;29;20171;-88
2024/04/05 01:50:25;;;;;;;22.33;7.30;;;10.00;93.80;;;;;;4959145;29;20184;-88
2024/04/05 01:52:50;;;;;;;20.93;7.33;;;10.10;93.80;;;;;;4959975;28;20207;-88
2024/04/05 01:55:16;;;;;;;25.60;7.00;;;10.10;93.70;;;;;;4959877;29;20176;-89
2024/04/05 01:57:41;;;;;;;30.67;7.60;;;10.10;93.70;;;;;;4958983;29;20187;-88
2024/04/05 02:00:08;;;;;;;30.47;8.17;;;10.20;93.60;;;;;;4958804;29;20187;-88
2024/04/05 02:02:34;;;;;;;25.30;7.30;;;10.20;93.50;;;;;;4960281;28;20207;-89
2024/04/05 02:04:59;;;;;;;26.93;8.07;;;10.20;93.50;;;;;;4959344;29;20179;-88
2024/04/05 02:07:28;;;;;;;31.57;7.90;;;10.10;93.50;;;;;;4958649;29;20282;-89
2024/04/05 02:09:55;;;;;;;27.27;7.60;;;10.10;93.60;;;;;;4958462;29;20214;-88
2024/04/05 02:12:21;;;;;;;25.93;7.70;;;10.20;93.60;;;;;;4960060;28;20203;-88
2024/04/05 02:14:47;;;;;;;26.20;8.27;;;10.30;93.40;;;;;;4958972;28;20648;-88
2024/04/05 02:17:13;;;;;;;31.20;7.73;;;10.30;93.30;;;;;;4958724;29;20194;-88
2024/04/05 02:19:39;;;;;;;29.03;8.87;;;10.30;93.30;;;;;;4958429;29;20199;-88
2024/04/05 02:22:08;;;;;;;25.73;8.20;;;10.40;93.10;;;;;;4959946;28;20218;-88
2024/04/05 02:24:34;;;;;;;39.43;8.40;;;10.50;93.00;;;;;;4957799;28;20290;-88
2024/04/05 02:27:00;;;;;;;35.47;8.87;;;10.60;92.80;;;;;;4958339;29;20210;-88
2024/04/05 02:29:26;;;;;;;33.23;8.60;;;10.60;92.70;;;;;;4958011;29;20179;-88
2024/04/05 02:31:51;;;;;;;26.97;8.03;;;10.60;92.50;;;;;;4957965;29;20219;-89
2024/04/05 02:34:17;;;;;;;34.87;9.53;;;10.70;92.40;;;;;;4958011;28;20238;-87
2024/04/05 02:36:42;;;;;;;33.53;8.40;;;10.80;91.90;;;;;;4958906;28;20178;-88
2024/04/05 02:39:08;;;;;;;34.23;9.27;;;10.90;91.60;;;;;;4957555;29;20179;-88
2024/04/05 02:41:34;;;;;;;44.33;10.03;;;10.80;91.70;;;;;;4957781;29;20660;-89
2024/04/05 02:44:00;;;;;;;36.47;9.80;;;10.90;91.70;;;;;;4957755;28;20199;-88
2024/04/05 02:46:26;;;;;;;41.00;10.40;;;10.90;91.80;;;;;;4957853;29;20210;-88
2024/04/05 02:48:53;;;;;;;31.13;9.60;;;10.90;91.60;;;;;;4957730;29;20199;-87
2024/04/05 02:51:18;;;;;;;38.43;10.67;;;10.90;91.60;;;;;;4957988;29;20210;-90
2024/04/05 02:53:44;;;;;;;28.50;10.23;;;10.90;91.80;;;;;;4957504;28;20671;-88
2024/04/05 02:56:10;;;;;;;38.13;9.67;;;10.90;91.70;;;;;;4958766;28;20652;-89
2024/04/05 02:58:36;;;;;;;33.63;10.07;;;10.80;91.80;;;;;;4959146;28;20178;-88
2024/04/05 03:01:01;;;;;;;35.00;9.83;;;10.80;91.80;;;;;;4957471;29;20187;-89
2024/04/05 03:03:27;;;;;;;36.87;10.67;;;10.80;91.80;;;;;;4957379;28;20290;-89
2024/04/05 03:05:52;;;;;;;39.50;10.80;;;10.80;91.80;;;;;;4957808;29;20226;-89
2024/04/05 03:08:18;;;;;;;46.37;9.67;;;10.70;91.80;;;;;;4958738;29;20179;-88
2024/04/05 03:10:44;;;;;;;38.33;12.00;;;10.70;91.90;;;;;;4959372;28;20219;-88
2024/04/05 03:13:09;;;;;;;34.90;11.13;;;10.70;91.90;;;;;;4959613;28;20594;-88
2024/04/05 03:15:35;;;;;;;36.47;10.53;;;10.70;91.90;;;;;;4957998;29;20190;-88
2024/04/05 03:18:02;;;;;;;50.27;10.90;;;10.70;91.90;;;;;;4958089;29;20184;-88
2024/04/05 03:20:28;;;;;;;40.30;14.77;;;10.60;91.80;;;;;;4959143;28;20212;-88
2024/04/05 03:22:54;;;;;;;40.13;13.60;;;10.60;91.90;;;;;;4957664;28;20592;-88
2024/04/05 03:25:19;;;;;;;44.40;15.10;;;10.60;91.90;;;;;;4957725;29;20283;-89
2024/04/05 03:27:45;;;;;;;40.20;13.63;;;10.60;92.00;;;;;;4957833;29;20250;-88
2024/04/05 03:30:10;;;;;;;43.83;15.43;;;10.70;91.90;;;;;;4957962;29;20175;-89
2024/04/05 03:32:37;;;;;;;33.77;12.57;;;10.70;91.90;;;;;;4959789;28;20188;-88
2024/04/05 03:35:05;;;;;;;41.10;13.70;;;10.60;91.80;;;;;;4957429;29;20175;-88
2024/04/05 03:37:31;;;;;;;39.53;16.37;;;10.70;91.80;;;;;;4958825;28;20172;-89
2024/04/05 03:39:57;;;;;;;34.70;13.03;;;10.60;91.80;;;;;;4957420;29;20710;-89
2024/04/05 03:42:22;;;;;;;35.30;14.70;;;10.50;91.70;;;;;;4958695;28;20258;-90
2024/04/05 03:44:48;;;;;;;39.20;12.77;;;10.60;91.60;;;;;;4957565;29;20556;-90
2024/04/05 03:47:14;;;;;;;43.60;13.57;;;10.60;91.40;;;;;;4958455;29;20203;-89
2024/04/05 03:49:40;;;;;;;42.40;14.20;;;10.60;91.60;;;;;;4957348;28;20172;-90
2024/04/05 03:52:06;;;;;;;37.17;14.70;;;10.60;91.50;;;;;;4957462;29;20184;-88
2024/04/05 03:54:32;;;;;;;39.20;13.27;;;10.70;91.50;;;;;;4958324;28;20199;-88
2024/04/05 03:56:58;;;;;;;43.00;14.53;;;10.70;91.20;;;;;;4958136;29;20248;-91
2024/04/05 03:59:23;;;;;;;42.17;14.93;;;10.70;91.00;;;;;;4957282;29;20179;-87
2024/04/05 04:01:52;;;;;;;42.77;13.83;;;10.70;90.90;;;;;;4958714;28;20203;-89
2024/04/05 04:04:18;;;;;;;41.73;14.53;;;10.70;91.00;;;;;;4957175;28;20199;-88
2024/04/05 04:06:44;;;;;;;33.83;13.67;;;10.70;90.80;;;;;;4957427;29;20197;-89
2024/04/05 04:09:11;;;;;;;38.50;15.17;;;10.70;90.80;;;;;;4957658;29;20167;-88
2024/04/05 04:11:37;;;;;;;33.87;15.13;;;10.70;90.60;;;;;;4957622;29;20199;-88
2024/04/05 04:14:02;;;;;;;39.30;14.03;;;10.70;90.50;;;;;;4957318;28;20238;-88
2024/04/05 04:16:28;;;;;;;41.13;16.00;;;10.70;90.50;;;;;;4957869;29;20190;-89
2024/04/05 04:18:53;;;;;;;44.33;15.33;;;10.70;90.50;;;;;;4957245;29;20262;-88
2024/04/05 04:21:21;;;;;;;36.63;13.30;;;10.70;90.50;;;;;;4957425;29;20202;-88
2024/04/05 04:23:47;;;;;;;34.43;13.93;;;10.70;90.50;;;;;;4957394;28;20211;-88
2024/04/05 04:26:12;;;;;;;34.97;13.93;;;10.60;90.60;;;;;;4957611;29;20179;-88
2024/04/05 04:28:38;;;;;;;29.13;13.07;;;10.60;90.60;;;;;;4958262;29;20199;-88
2024/04/05 04:31:16;;;;;;;31.80;14.57;;;10.50;90.70;;;;;;4957554;29;20179;-89
2024/04/05 04:33:42;;;;;;;30.80;13.53;;;10.50;90.70;;;;;;4957154;28;20286;-88
2024/04/05 04:36:08;;;;;;;37.70;15.43;;;10.50;90.60;;;;;;4957405;29;20675;-88
2024/04/05 04:38:33;;;;;;;32.90;14.80;;;10.50;90.30;;;;;;4957515;29;20671;-88
2024/04/05 04:40:59;;;;;;;35.30;13.67;;;10.50;90.40;;;;;;4957085;29;20199;-88
2024/04/05 04:43:25;;;;;;;27.70;14.80;;;10.50;90.40;;;;;;4956921;28;20289;-88
2024/04/05 04:45:50;;;;;;;29.33;10.40;;;10.40;90.30;;;;;;4958350;29;20179;-89
2024/04/05 04:48:16;;;;;;;35.83;9.90;;;10.40;90.50;;;;;;4957427;29;20179;-87
2024/04/05 04:50:43;;;;;;;33.80;10.77;;;10.30;90.30;;;;;;4957581;29;20262;-88
2024/04/05 04:53:09;;;;;;;37.47;10.90;;;10.40;90.50;;;;;;4957773;28;20211;-88
2024/04/05 04:55:35;;;;;;;31.07;10.57;;;10.30;90.60;;;;;;4957861;29;20197;-88
2024/04/05 04:58:01;;;;;;;36.97;11.47;;;10.30;90.70;;;;;;4957403;29;20179;-89
2024/04/05 05:00:26;;;;;;;39.77;10.27;;;10.30;90.70;;;;;;4957460;29;20190;-88
2024/04/05 05:02:52;;;;;;;37.13;11.13;;;10.30;90.50;;;;;;4958698;28;20211;-88
2024/04/05 05:05:17;;;;;;;34.93;9.63;;;10.30;90.40;;;;;;4957650;29;20186;-89
2024/04/05 05:07:44;;;;;;;30.90;10.17;;;10.30;90.60;;;;;;4958071;29;20184;-88
2024/04/05 05:10:09;;;;;;;33.53;10.23;;;10.30;90.50;;;;;;4957287;29;20182;-88
2024/04/05 05:12:36;;;;;;;33.33;10.23;;;10.40;90.40;;;;;;4957994;28;20277;-88
2024/04/05 05:15:02;;;;;;;27.67;9.37;;;10.40;90.30;;;;;;4956580;29;20266;-87
2024/04/05 05:17:28;;;;;;;26.67;9.57;;;10.50;90.30;;;;;;4954466;29;20187;-88
2024/04/05 05:19:53;;;;;;;30.43;11.57;;;10.50;90.30;;;;;;4954306;29;20707;-88
2024/04/05 05:22:19;;;;;;;36.03;10.27;;;10.40;90.40;;;;;;4954175;28;20590;-88
2024/04/05 05:24:45;;;;;;;34.07;10.40;;;10.50;90.40;;;;;;4954257;29;20221;-88
2024/04/05 05:27:10;;;;;;;32.03;9.43;;;10.40;90.40;;;;;;4954416;29;20218;-87
2024/04/05 05:29:36;;;;;;;33.77;10.90;;;10.50;90.50;;;;;;4955400;29;20199;-87
2024/04/05 05:32:01;;;;;;;33.93;10.33;;;10.40;90.50;;;;;;4955896;29;20182;-88
2024/04/05 05:34:27;;;;;;;37.03;9.20;;;10.40;90.50;;;;;;4954340;28;20241;-87
2024/04/05 05:36:52;;;;;;;27.07;8.83;;;10.40;90.50;;;;;;4954180;29;20190;-88
2024/04/05 05:39:20;;;;;;;35.90;9.73;;;10.50;90.50;;;;;;4954441;29;20728;-88
2024/04/05 05:41:46;;;;;;;30.17;11.10;;;10.40;90.60;;;;;;4954488;29;20184;-87
2024/04/05 05:44:11;;;;;;;28.47;10.03;;;10.50;90.60;;;;;;4955327;28;20202;-88
2024/04/05 05:46:37;;;;;;;28.30;10.43;;;10.50;90.60;;;;;;4955709;29;20302;-87
2024/04/05 05:49:02;;;;;;;34.97;11.97;;;10.50;90.70;;;;;;4955253;29;20254;-87
2024/04/05 05:51:28;;;;;;;34.90;9.93;;;10.50;90.70;;;;;;4954293;29;20652;-88
2024/04/05 05:53:53;;;;;;;32.07;9.73;;;10.50;90.70;;;;;;4954521;28;20208;-87
2024/04/05 05:56:20;;;;;;;39.33;10.50;;;10.50;90.70;;;;;;4956075;29;20175;-87
2024/04/05 05:58:45;;;;;;;30.93;10.37;;;10.50;90.80;;;;;;4954518;29;20183;-88
2024/04/05 06:01:12;;;;;;;38.93;11.47;;;10.50;90.70;;;;;;4953720;29;20193;-87
2024/04/05 06:03:38;;;;;;;38.67;9.27;;;10.50;90.60;;;;;;4953396;28;20219;-88
2024/04/05 06:06:06;;;;;;;32.80;9.23;;;10.60;90.70;;;;;;4954901;28;20175;-88
2024/04/05 06:08:32;;;;;;;25.70;8.67;;;10.60;90.80;;;;;;4953628;29;20199;-87
2024/04/05 06:10:58;;;;;;;24.30;8.07;;;10.70;90.70;;;;;;4954997;28;20199;-88
2024/04/05 06:13:24;;;;;;;28.83;9.33;;;10.70;90.50;;;;;;4957356;28;20250;-89
2024/04/05 06:15:54;;;;;;;34.23;9.83;;;10.70;90.60;;;;;;4957090;29;20215;-88
2024/04/05 06:18:19;;;;;;;32.20;9.80;;;10.80;90.50;;;;;;4958174;28;20203;-87
2024/04/05 06:20:51;;;;;;;33.57;9.33;;;10.80;90.20;;;;;;4956752;29;20218;-87
2024/04/05 06:23:17;;;;;;;27.87;9.67;;;10.80;90.20;;;;;;4957917;28;20215;-87
2024/04/05 06:25:50;;;;;;;40.97;10.17;;;10.80;90.30;;;;;;4958089;29;20259;-87
2024/04/05 06:28:16;;;;;;;26.80;9.97;;;10.80;90.40;;;;;;4956915;29;20170;-87
2024/04/05 06:30:41;;;;;;;25.30;9.40;;;10.80;90.30;;;;;;4956996;29;20179;-88
2024/04/05 06:33:07;;;;;;;31.97;11.47;;;10.80;90.40;;;;;;4956594;28;20199;-87
2024/04/05 06:35:32;;;;;;;31.00;9.63;;;10.80;90.40;;;;;;4956514;29;20534;-87
2024/04/05 06:37:58;;;;;;;28.73;9.37;;;10.70;90.50;;;;;;4956539;29;20211;-87
2024/04/05 06:40:24;;;;;;;27.50;9.53;;;10.80;90.60;;;;;;4956453;29;20179;-87
2024/04/05 06:42:50;;;;;;;26.53;8.80;;;10.80;90.70;;;;;;4956404;28;20211;-87
2024/04/05 06:45:15;;;;;;;29.43;9.73;;;10.80;90.80;;;;;;4957589;29;20180;-87
2024/04/05 06:47:41;;;;;;;25.33;9.67;;;10.80;90.70;;;;;;4957856;29;20183;-87
2024/04/05 06:50:07;;;;;;;35.30;10.73;;;10.80;90.60;;;;;;4957714;29;20590;-87
2024/04/05 06:52:33;;;;;;;25.13;9.13;;;10.90;90.60;;;;;;4956780;28;20207;-88
2024/04/05 06:54:59;;;;;;;27.37;8.63;;;10.90;90.50;;;;;;4957556;28;20203;-87
2024/04/05 06:57:24;;;;;;;32.30;11.20;;;11.00;90.50;;;;;;4957525;29;20186;-87
2024/04/05 06:59:50;;;;;;;34.53;10.00;;;11.00;90.30;;;;;;4956104;29;20180;-87
2024/04/05 07:02:16;;;;;;;35.67;11.37;;;11.00;90.40;;;;;;4957410;29;20281;-87
2024/04/05 07:04:43;;;;;;;32.10;9.60;;;11.00;90.30;;;;;;4956222;29;20199;-88
2024/04/05 07:07:08;;;;;;;27.67;9.50;;;11.00;90.30;;;;;;4956232;29;20234;-87
2024/04/05 07:09:34;;;;;;;23.60;9.10;;;11.00;90.40;;;;;;4957649;29;20180;-88
2024/04/05 07:12:04;;;;;;;36.30;11.10;;;11.10;90.40;;;;;;4956139;29;20175;-86
2024/04/05 07:14:29;;;;;;;25.40;9.30;;;11.10;90.00;;;;;;4956479;28;20605;-88
2024/04/05 07:16:55;;;;;;;28.20;10.50;;;11.20;90.10;;;;;;4956132;29;20210;-87
2024/04/05 07:19:21;;;;;;;29.80;12.10;;;11.10;90.20;;;;;;4957014;29;20258;-87
2024/04/05 07:21:49;;;;;;;35.40;13.23;;;11.10;90.30;;;;;;4957002;28;20179;-87
2024/04/05 07:24:15;;;;;;;27.90;13.30;;;11.10;90.30;;;;;;4955887;28;20192;-87
2024/04/05 07:26:43;;;;;;;30.97;13.77;;;11.10;90.50;;;;;;4957028;29;20230;-87
2024/04/05 07:29:09;;;;;;;33.47;14.03;;;11.10;90.60;;;;;;4955604;29;20183;-86
2024/04/05 07:31:36;;;;;;;39.43;13.70;;;11.20;90.70;;;;;;4955830;29;20203;-87
2024/04/05 07:34:05;;;;;;;25.10;12.10;;;11.20;90.90;;;;;;4955913;28;20207;-88
2024/04/05 07:36:32;;;;;;;30.30;12.60;;;11.20;91.00;;;;;;4956842;28;20235;-87
2024/04/05 07:38:58;;;;;;;32.87;14.80;;;11.30;91.00;;;;;;4955857;29;20231;-86
2024/04/05 07:41:23;;;;;;;26.20;14.33;;;11.30;91.10;;;;;;4956739;28;20176;-86
2024/04/05 07:43:49;;;;;;;39.43;14.83;;;11.30;91.50;;;;;;4955186;28;20210;-88
2024/04/05 07:46:15;;;;;;;29.90;13.83;;;11.30;91.70;;;;;;4955405;29;20179;-88
2024/04/05 07:48:40;;;;;;;36.83;12.33;;;11.30;91.90;;;;;;4955754;29;20194;-88
2024/04/05 07:51:06;;;;;;;28.53;10.87;;;11.30;92.00;;;;;;4955533;29;20171;-89
2024/04/05 07:53:32;;;;;;;33.87;11.77;;;11.40;92.00;;;;;;4955827;28;20680;-88
2024/04/05 07:56:09;;;;;;;31.83;12.13;;;11.40;92.20;;;;;;4957119;29;20258;-90
2024/04/05 07:58:36;;;;;;;29.90;11.30;;;11.40;92.40;;;;;;4957237;29;20179;-88
2024/04/05 08:01:03;;;;;;;30.80;11.93;;;11.40;92.50;;;;;;4956374;29;20710;-87
2024/04/05 08:03:28;;;;;;;29.30;11.67;;;11.40;92.70;;;;;;4955248;28;20215;-89
2024/04/05 08:05:54;;;;;;;30.53;11.57;;;11.50;92.80;;;;;;4955162;29;20544;-89
2024/04/05 08:08:20;;;;;;;32.30;12.13;;;11.60;93.00;;;;;;4956133;29;20188;-88
2024/04/05 08:10:45;;;;;;;27.83;8.53;;;11.60;93.10;;;;;;4954933;29;20610;-89
2024/04/05 08:13:11;;;;;;;31.00;8.73;;;11.70;93.20;;;;;;4955995;28;20298;-89
2024/04/05 08:15:36;;;;;;;29.00;8.67;;;11.70;93.20;;;;;;4957358;29;20183;-89
2024/04/05 08:18:02;;;;;;;28.17;8.97;;;11.80;93.20;;;;;;4954709;29;20215;-89
2024/04/05 09:04:43;;;;;;;22.73;9.17;;;13.60;89.40;;;;;;5777030;23;20777;-85
2024/04/05 09:07:09;;;;;;;25.97;10.60;;;13.50;89.20;;;;;;4934897;29;20208;-86
2024/04/05 09:09:35;;;;;;;22.13;9.77;;;13.50;88.60;;;;;;4935950;29;20180;-86
2024/04/05 09:12:07;;;;;;;20.63;9.53;;;13.60;88.80;;;;;;4935858;29;20169;-86
2024/04/05 09:14:36;;;;;;;25.70;10.40;;;13.70;88.80;;;;;;4918408;29;20193;-86
2024/04/05 09:17:15;;;;;;;27.20;11.70;;;13.70;88.20;;;;;;4915889;29;20229;-86
2024/04/05 09:19:41;;;;;;;19.95;9.90;;;13.70;87.70;;;;;;4915892;29;20259;-85
2024/04/05 09:22:07;;;;;;;31.85;13.13;;;13.80;87.60;;;;;;4916146;29;20680;-86
2024/04/05 09:24:33;;;;;;;26.10;11.40;;;14.00;88.10;;;;;;4917860;29;20188;-86
2024/04/05 09:27:00;;;;;;;17.42;9.73;;;13.90;87.50;;;;;;4916660;29;20180;-86
2024/04/05 09:29:26;;;;;;;19.05;10.93;;;14.00;87.10;;;;;;4917388;29;20166;-86
2024/04/05 09:31:52;;;;;;;22.93;11.33;;;14.00;87.10;;;;;;4916095;29;20684;-86
2024/04/05 09:34:19;;;;;;;21.33;11.23;;;13.90;87.70;;;;;;4916146;29;20196;-85
2024/04/05 09:36:45;;;;;;;21.52;8.95;;;14.00;87.80;;;;;;4915821;29;20649;-86
2024/04/05 09:39:13;;;;;;;20.37;10.33;;;14.00;87.90;;;;;;4917989;29;20180;-86
2024/04/05 09:41:40;;;;;;;26.10;10.87;;;13.90;87.70;;;;;;4916427;29;20208;-88
2024/04/05 09:44:07;;;;;;;27.20;11.27;;;13.90;87.80;;;;;;4918213;29;20201;-87
2024/04/05 09:46:33;;;;;;;19.20;10.00;;;13.90;87.60;;;;;;4918746;29;20721;-86
2024/04/05 09:49:01;;;;;;;18.80;10.02;;;14.10;87.70;;;;;;4919462;29;20185;-85
2024/04/05 09:51:42;;;;;;;29.58;11.25;;;14.10;87.10;;;;;;4919273;29;20231;-86
2024/04/05 09:54:10;;;;;;;17.95;9.70;;;14.20;87.70;;;;;;4920799;29;20197;-85
2024/04/05 09:56:38;;;;;;;19.95;9.95;;;14.20;87.40;;;;;;4920400;29;20169;-85
2024/04/05 09:59:06;;;;;;;17.38;9.90;;;14.30;87.50;;;;;;4920641;29;20176;-85
2024/04/05 10:01:32;;;;;;;18.23;9.80;;;14.40;87.60;;;;;;4919111;29;20188;-86
2024/04/05 10:03:58;;;;;;;17.27;9.45;;;14.60;87.40;;;;;;4921069;29;20707;-85
2024/04/05 10:06:34;;;;;;;19.25;10.57;;;14.80;87.20;;;;;;4919312;29;20227;-86
2024/04/05 10:09:00;;;;;;;18.42;10.05;;;14.80;86.30;;;;;;4919245;29;20177;-87
2024/04/05 10:11:27;;;;;;;18.77;10.23;;;14.90;86.60;;;;;;4920420;29;20204;-86
2024/04/05 10:14:00;;;;;;;19.33;10.68;;;15.00;86.70;;;;;;4919283;29;20227;-86
2024/04/05 10:16:26;;;;;;;23.50;16.23;;;15.00;86.60;;;;;;4920234;29;20186;-86
2024/04/05 10:18:51;;;;;;;21.67;15.63;;;14.80;86.00;;;;;;4919004;29;20204;-85
2024/04/05 10:21:18;;;;;;;18.77;14.65;;;14.80;86.30;;;;;;4919150;29;20189;-85
2024/04/05 10:23:44;;;;;;;21.48;14.98;;;14.80;86.00;;;;;;4918874;29;20252;-86
2024/04/05 10:26:13;;;;;;;20.80;15.55;;;14.80;86.70;;;;;;4920392;29;20311;-86
2024/04/05 10:28:39;;;;;;;19.02;15.27;;;14.80;86.50;;;;;;4920300;29;20680;-86
2024/04/05 10:31:10;;;;;;;20.50;14.27;;;14.80;86.60;;;;;;4920037;29;20219;-85
2024/04/05 10:33:38;;;;;;;18.15;14.35;;;14.80;86.80;;;;;;4920021;29;20192;-85
2024/04/05 10:36:05;;;;;;;22.10;14.95;;;14.80;86.70;;;;;;4919038;29;20658;-86
2024/04/05 10:38:33;;;;;;;23.17;14.73;;;14.80;87.00;;;;;;4920534;29;20173;-86
2024/04/05 10:41:03;;;;;;;21.25;15.48;;;14.90;87.30;;;;;;4920027;29;20189;-85
2024/04/05 10:43:31;;;;;;;21.02;14.65;;;14.80;87.20;;;;;;4920126;29;20215;-85
2024/04/05 10:45:58;;;;;;;15.80;14.10;;;14.80;87.40;;;;;;4920568;29;20204;-85
2024/04/05 10:48:25;;;;;;;16.70;10.57;;;14.80;87.10;;;;;;4920519;29;20184;-86
2024/04/05 10:50:52;;;;;;;13.23;9.48;;;14.80;87.20;;;;;;4920158;29;20244;-85
2024/04/05 10:53:19;;;;;;;18.85;10.88;;;14.80;87.20;;;;;;4919897;29;20208;-85
2024/04/05 10:55:45;;;;;;;15.43;9.40;;;14.80;87.20;;;;;;4920169;29;20232;-86
2024/04/05 10:58:13;;;;;;;17.10;9.98;;;14.80;87.40;;;;;;4919971;29;20255;-86
2024/04/05 11:00:40;;;;;;;16.42;9.57;;;14.80;87.20;;;;;;4919882;29;20256;-86
2024/04/05 11:03:07;;;;;;;22.20;10.40;;;14.80;87.00;;;;;;4919691;29;20209;-86
2024/04/05 11:05:34;;;;;;;16.27;9.85;;;14.80;87.10;;;;;;4918570;29;20545;-85
2024/04/05 11:08:03;;;;;;;18.40;10.00;;;14.80;87.30;;;;;;4918499;29;20279;-85
2024/04/05 11:10:33;;;;;;;17.92;9.52;;;14.90;87.50;;;;;;4918110;29;20236;-86
2024/04/05 11:13:00;;;;;;;19.38;10.38;;;14.80;87.60;;;;;;4919625;29;20203;-86
2024/04/05 11:15:26;;;;;;;15.73;10.20;;;14.90;87.60;;;;;;4918177;29;20216;-85
2024/04/05 11:18:03;;;;;;;15.23;10.23;;;14.90;87.60;;;;;;4917915;29;20680;-86
2024/04/05 11:20:33;;;;;;;15.05;9.98;;;14.80;87.40;;;;;;4918373;29;20177;-86
2024/04/05 11:23:04;;;;;;;13.00;9.68;;;14.90;87.70;;;;;;4917679;29;20597;-86
2024/04/05 11:25:31;;;;;;;18.75;10.60;;;14.90;87.90;;;;;;4917678;29;20251;-86
2024/04/05 11:27:57;;;;;;;16.30;10.10;;;14.80;87.50;;;;;;4917588;29;20236;-85
2024/04/05 11:30:24;;;;;;;18.17;9.95;;;14.80;87.50;;;;;;4917765;29;20173;-86
2024/04/05 11:32:50;;;;;;;18.95;9.43;;;14.80;87.80;;;;;;4917418;29;20212;-86
2024/04/05 11:35:15;;;;;;;18.45;10.27;;;14.80;87.80;;;;;;4917545;29;20184;-85
2024/04/05 11:37:45;;;;;;;16.17;9.68;;;14.70;87.70;;;;;;4917453;29;20193;-86
2024/04/05 11:40:12;;;;;;;22.80;9.68;;;14.80;88.20;;;;;;4917528;29;20657;-86
2024/04/05 11:42:38;;;;;;;18.63;9.00;;;14.80;88.30;;;;;;4916962;29;20223;-85
2024/04/05 11:45:05;;;;;;;18.20;8.45;;;14.80;88.50;;;;;;4917133;29;20184;-86
2024/04/05 11:47:35;;;;;;;12.82;8.10;;;14.70;88.80;;;;;;4917348;29;20654;-86
2024/04/05 11:50:01;;;;;;;13.80;8.10;;;14.70;89.10;;;;;;4918621;29;20193;-86
2024/04/05 11:52:27;;;;;;;13.23;8.43;;;14.60;89.30;;;;;;4917117;29;20272;-84
2024/04/05 11:54:53;;;;;;;15.90;7.80;;;14.50;89.70;;;;;;4917125;29;20268;-86
2024/04/05 11:57:19;;;;;;;14.38;7.38;;;14.50;90.00;;;;;;4918283;29;20185;-86
2024/04/05 11:59:44;;;;;;;14.50;7.95;;;14.40;90.40;;;;;;4916994;29;20184;-85
2024/04/05 12:02:11;;;;;;;13.25;7.25;;;14.40;90.70;;;;;;4917074;29;20560;-86
2024/04/05 12:04:36;;;;;;;15.30;7.63;;;14.40;90.90;;;;;;4916701;29;20287;-86
2024/04/05 12:07:03;;;;;;;17.38;7.72;;;14.40;91.20;;;;;;4917986;29;20633;-86
2024/04/05 12:09:28;;;;;;;15.13;8.32;;;14.40;91.40;;;;;;4917843;29;20187;-87
2024/04/05 12:11:54;;;;;;;19.95;8.48;;;14.50;91.50;;;;;;4916958;29;20267;-86
2024/04/05 12:14:20;;;;;;;19.70;8.25;;;14.40;91.60;;;;;;4918633;29;20681;-86
2024/04/05 12:16:46;;;;;;;18.17;8.27;;;14.40;91.70;;;;;;4916956;29;20330;-86
2024/04/05 12:19:11;;;;;;;14.60;7.97;;;14.40;91.70;;;;;;4917712;29;20173;-86
2024/04/05 12:21:37;;;;;;;18.60;8.38;;;14.40;91.80;;;;;;4916157;29;20243;-86
2024/04/05 12:24:04;;;;;;;15.35;7.68;;;14.30;92.00;;;;;;4917743;29;20215;-86
2024/04/05 12:26:30;;;;;;;19.55;7.57;;;14.30;92.20;;;;;;4916123;29;20191;-87
2024/04/05 12:28:55;;;;;;;17.10;7.65;;;14.20;92.40;;;;;;4917573;29;20177;-86
2024/04/05 12:31:21;;;;;;;18.75;7.07;;;14.20;92.50;;;;;;4917211;29;20184;-87
2024/04/05 12:33:46;;;;;;;11.10;6.88;;;14.20;92.80;;;;;;4916024;29;20192;-87
2024/04/05 12:36:13;;;;;;;19.42;7.47;;;14.20;92.90;;;;;;4915970;29;20232;-87
2024/04/05 12:38:40;;;;;;;15.05;6.88;;;14.20;93.10;;;;;;4916158;29;20566;-85
2024/04/05 12:41:08;;;;;;;17.80;7.07;;;14.20;93.20;;;;;;4915955;29;20180;-86
2024/04/05 12:43:34;;;;;;;20.77;7.13;;;14.20;93.30;;;;;;4915764;29;20216;-86
2024/04/05 12:46:05;;;;;;;12.10;6.03;;;14.20;93.50;;;;;;4917460;29;20264;-85
2024/04/05 12:48:32;;;;;;;13.38;5.68;;;14.20;93.40;;;;;;4917081;29;20169;-86
2024/04/05 12:51:02;;;;;;;10.88;6.35;;;14.20;93.40;;;;;;4917131;29;20177;-86
2024/04/05 12:53:29;;;;;;;15.52;6.55;;;14.20;93.40;;;;;;4915724;29;20204;-86
2024/04/05 12:55:56;;;;;;;12.82;5.78;;;14.10;93.50;;;;;;4917557;29;20661;-86
2024/04/05 12:58:26;;;;;;;11.70;5.88;;;14.10;93.40;;;;;;4915715;29;20184;-86
2024/04/05 13:00:52;;;;;;;12.40;5.88;;;14.10;93.50;;;;;;4917322;29;20194;-85
2024/04/05 13:03:19;;;;;;;17.20;6.43;;;14.10;93.30;;;;;;4915519;29;20216;-85
2024/04/05 13:05:44;;;;;;;17.92;6.03;;;14.00;93.30;;;;;;4915499;29;20669;-85
2024/04/05 13:08:10;;;;;;;16.33;5.80;;;14.00;93.30;;;;;;4917186;29;20191;-85
2024/04/05 13:10:36;;;;;;;12.18;5.82;;;14.00;93.30;;;;;;4915519;29;20173;-85
2024/04/05 13:13:01;;;;;;;13.23;6.20;;;14.00;93.40;;;;;;4917064;29;20203;-86